Kirchberg-Wetter.de


Hier erfahren Sie, wie das Wetter wird...


WebCam am Fuchsberg more information WebCam am Fuchsberg


Thunder radar more information blitzortung!


Rain radar more information rain snow radar


Besuchen Sie unsere anderen Wetter Stationen:

Template documentation
and downloads

And another site



Extrem niedrige Temperatur Gültig von: 23-01-2020 19:00 bis: 24-01-2020 11:00 Warnung für: Extrem niedrige Temperatur Gefahrenstufe: Gelb info button
deutsch:
Es tritt leichter Frost zwischen -2 °C und -4 °C auf. Bei längerem Aufklaren sinken die Temperaturen auf Werte bis -6 °C.

english:
There is a risk of frost. (Level 1 of 2).Minimum temperature: -2 - -4 °C; local minimum: as clear sky conditions continued > -6 °C 

METAR-Meldungen aus der Umgebung

   
EHVK - Volkel Rnlafb, Netherlands
Entfernung von der Station bis: SW 18 km
Aktualisierung: 24-01-2020 00:00
Nebel, Bewölkt  
Nebel, Bewölkt  
   Wind: SO 7.4 km/h
Wind: SO 7.4 km/h
Temperatur: 2°C
Gefühlt: 0°C
Taupunkt: 2°C
Luftfeuchte: 100%
Luftdruck: 1026 hPa
Bewölkt: Bewölkt
Sichtbarkeit: 4 km
Bewölkung: Bewölkt 400 ft
EHVK 232300Z AUTO 13004KT 110V180 3600 BR OVC004 02/02 Q1026 YLO
EDLV - Niederrhein, Germany
Entfernung von der Station bis: SO 25 km
Aktualisierung: 23-01-2020 23:50
Nebel, Stark bewölkt  
Nebel, Stark bewölkt  
   Wind: SSO 9.3 km/h
Wind: SSO 9.3 km/h
Temperatur: 2°C
Gefühlt: -1°C
Taupunkt: 1°C
Luftfeuchte: 93%
Luftdruck: 1026 hPa
Bewölkt: Stark bewölkt
Sichtbarkeit: 5 km
Bewölkung: Stark bewölkt 500 ft
EDLV 232250Z 15005KT 110V190 4600 BR BKN005 02/01 Q1026
EHDL - Deelen Rnlafb, Netherlands
Entfernung von der Station bis: N 35 km
Aktualisierung: 23-01-2020 23:55
Nebel, Bewölkt  
Nebel, Bewölkt  
   Wind: OSO 5.6 km/h
Wind: OSO 5.6 km/h
Temperatur: 2°C
Gefühlt: 1°C
Taupunkt: 1°C
Luftfeuchte: 93%
Luftdruck: 1026 hPa
Bewölkt: Bewölkt
Sichtbarkeit: 6 km
Bewölkung: Bewölkt 800 ft
EHDL 232255Z AUTO 12003KT 100V190 6000 BR OVC008 02/01 Q1026 GRN
EHEH - Eindhoven Rnlafb, Netherlands
Entfernung von der Station bis: SW 48 km
Aktualisierung: 24-01-2020 00:09
Nebel, Bewölkt  
Nebel, Bewölkt  
   Wind: SSO 9.3 km/h
Wind: SSO 9.3 km/h
Temperatur: 2°C
Gefühlt: -1°C
Taupunkt: 1°C
Luftfeuchte: 93%
Luftdruck: 1026 hPa
Bewölkt: Bewölkt
Sichtbarkeit: 2 km
Bewölkung: Bewölkt 200 ft
EHEH 232309Z AUTO 15005KT 130V190 2100 BR OVC002 02/01 Q1026 AMB
EHGR - Gilze-Rijen Rnla, Netherlands
Entfernung von der Station bis: WSW 70 km
Aktualisierung: 24-01-2020 00:15
Nebel, Bewölkt  
Nebel, Bewölkt  
   Wind: SSO 9.3 km/h
Wind: SSO 9.3 km/h
Temperatur: 2°C
Gefühlt: -1°C
Taupunkt: 2°C
Luftfeuchte: 100%
Luftdruck: 1026 hPa
Bewölkt: Bewölkt
Sichtbarkeit: 2 km
Bewölkung: Bewölkt 200 ft
EHGR 232315Z AUTO 16005KT 100V180 2300 BR OVC002 02/02 Q1026 AMB
EBBL - Kleine-Brogel(Ba, Belgium
Entfernung von der Station bis: SSW 71 km
Aktualisierung: 23-01-2020 23:55
Nebel, Bewölkt  
Nebel, Bewölkt  
   Wind: variiert 3.7 km/h
Wind: variiert 3.7 km/h
Temperatur: 1°C
Taupunkt: 1°C
Luftfeuchte: 100%
Luftdruck: 1026 hPa
Bewölkt: Bewölkt
Sichtbarkeit: 3 km
Bewölkung: Bewölkt 200 ft
EBBL 232255Z AUTO VRB02KT 2700 BR OVC002/// 01/01 Q1026 AMB

Script entwickelt von  Saratoga-weather.org Angepasst für das Template von  Weerstation Leuven

Sie finden unser Wetter-Infos auch auf:

Weather Underground

WeatherlinkIP

Wetternetz-Sachsen

Von uns verwendete Ausrüstung:

Wetterstation
Davis Vantage Pro2 Plus

Wetterprogramm
Meteobridge

WetterComputer
TP-Link TL-MR3020

Davis Vantage Pro2 Plus

Meteobridge

TP-Link TL-MR3020